sensor_id;sensor_type;location;lat;lon;timestamp;P1;durP1;ratioP1;P2;durP2;ratioP2
13866;SDS011;7003;46.982;15.248;2023-09-19T00:01:54;10.85;;;7.05;;
13866;SDS011;7003;46.982;15.248;2023-09-19T00:04:24;10.23;;;7.38;;
13866;SDS011;7003;46.982;15.248;2023-09-19T00:06:56;9.50;;;6.65;;
13866;SDS011;7003;46.982;15.248;2023-09-19T00:09:23;12.20;;;6.75;;
13866;SDS011;7003;46.982;15.248;2023-09-19T00:11:53;8.13;;;5.95;;
13866;SDS011;7003;46.982;15.248;2023-09-19T00:14:24;6.05;;;5.43;;
13866;SDS011;7003;46.982;15.248;2023-09-19T00:16:56;11.10;;;5.78;;
13866;SDS011;7003;46.982;15.248;2023-09-19T00:19:26;6.28;;;5.45;;
13866;SDS011;7003;46.982;15.248;2023-09-19T00:21:54;6.30;;;5.70;;
13866;SDS011;7003;46.982;15.248;2023-09-19T00:24:21;9.18;;;5.38;;
13866;SDS011;7003;46.982;15.248;2023-09-19T00:26:49;9.57;;;5.57;;
13866;SDS011;7003;46.982;15.248;2023-09-19T00:29:20;11.10;;;5.80;;
13866;SDS011;7003;46.982;15.248;2023-09-19T00:31:49;9.70;;;5.63;;
13866;SDS011;7003;46.982;15.248;2023-09-19T00:34:20;10.13;;;5.20;;
13866;SDS011;7003;46.982;15.248;2023-09-19T00:36:50;6.03;;;4.10;;
13866;SDS011;7003;46.982;15.248;2023-09-19T00:39:20;5.78;;;3.85;;
13866;SDS011;7003;46.982;15.248;2023-09-19T00:41:47;4.72;;;4.07;;
13866;SDS011;7003;46.982;15.248;2023-09-19T00:44:16;7.03;;;3.70;;
13866;SDS011;7003;46.982;15.248;2023-09-19T00:46:47;9.60;;;5.32;;
13866;SDS011;7003;46.982;15.248;2023-09-19T00:49:20;18.10;;;5.13;;
13866;SDS011;7003;46.982;15.248;2023-09-19T00:51:51;6.05;;;3.72;;
13866;SDS011;7003;46.982;15.248;2023-09-19T00:54:20;7.13;;;3.38;;
13866;SDS011;7003;46.982;15.248;2023-09-19T00:56:48;4.53;;;3.70;;
13866;SDS011;7003;46.982;15.248;2023-09-19T00:59:16;5.40;;;3.58;;
13866;SDS011;7003;46.982;15.248;2023-09-19T01:01:44;4.28;;;3.58;;
13866;SDS011;7003;46.982;15.248;2023-09-19T01:04:11;6.38;;;3.58;;
13866;SDS011;7003;46.982;15.248;2023-09-19T01:06:43;6.90;;;4.18;;
13866;SDS011;7003;46.982;15.248;2023-09-19T01:09:14;4.22;;;3.38;;
13866;SDS011;7003;46.982;15.248;2023-09-19T01:11:44;7.82;;;3.80;;
13866;SDS011;7003;46.982;15.248;2023-09-19T01:14:18;5.20;;;2.70;;
13866;SDS011;7003;46.982;15.248;2023-09-19T01:17:08;4.35;;;3.03;;
13866;SDS011;7003;46.982;15.248;2023-09-19T01:19:48;3.67;;;3.38;;
13866;SDS011;7003;46.982;15.248;2023-09-19T01:22:46;11.52;;;3.35;;
13866;SDS011;7003;46.982;15.248;2023-09-19T01:25:45;9.15;;;3.80;;
13866;SDS011;7003;46.982;15.248;2023-09-19T01:28:34;8.20;;;4.25;;
13866;SDS011;7003;46.982;15.248;2023-09-19T01:31:14;14.27;;;6.68;;
13866;SDS011;7003;46.982;15.248;2023-09-19T01:33:57;6.18;;;4.40;;
13866;SDS011;7003;46.982;15.248;2023-09-19T01:36:31;12.05;;;5.38;;
13866;SDS011;7003;46.982;15.248;2023-09-19T01:39:02;7.07;;;4.25;;
13866;SDS011;7003;46.982;15.248;2023-09-19T01:44:31;4.75;;;3.65;;
13866;SDS011;7003;46.982;15.248;2023-09-19T01:47:16;6.10;;;4.10;;
13866;SDS011;7003;46.982;15.248;2023-09-19T01:49:50;4.75;;;3.97;;
13866;SDS011;7003;46.982;15.248;2023-09-19T01:52:23;3.65;;;3.13;;
13866;SDS011;7003;46.982;15.248;2023-09-19T01:55:05;5.32;;;3.83;;
13866;SDS011;7003;46.982;15.248;2023-09-19T01:57:37;6.72;;;5.07;;
13866;SDS011;7003;46.982;15.248;2023-09-19T02:00:12;7.30;;;3.92;;
13866;SDS011;7003;46.982;15.248;2023-09-19T02:02:46;6.65;;;4.47;;
13866;SDS011;7003;46.982;15.248;2023-09-19T02:05:21;8.00;;;3.97;;
13866;SDS011;7003;46.982;15.248;2023-09-19T02:07:49;9.13;;;4.47;;
13866;SDS011;7003;46.982;15.248;2023-09-19T02:10:17;9.90;;;5.05;;
13866;SDS011;7003;46.982;15.248;2023-09-19T02:12:44;9.98;;;4.53;;
13866;SDS011;7003;46.982;15.248;2023-09-19T02:15:12;5.57;;;2.63;;
13866;SDS011;7003;46.982;15.248;2023-09-19T02:17:43;7.68;;;3.25;;
13866;SDS011;7003;46.982;15.248;2023-09-19T02:20:15;9.55;;;4.20;;
13866;SDS011;7003;46.982;15.248;2023-09-19T02:22:47;5.47;;;3.83;;
13866;SDS011;7003;46.982;15.248;2023-09-19T02:25:15;6.65;;;3.50;;
13866;SDS011;7003;46.982;15.248;2023-09-19T02:27:46;7.00;;;3.58;;
13866;SDS011;7003;46.982;15.248;2023-09-19T02:30:14;3.92;;;3.40;;
13866;SDS011;7003;46.982;15.248;2023-09-19T02:32:44;10.63;;;4.03;;
13866;SDS011;7003;46.982;15.248;2023-09-19T02:35:15;5.72;;;3.38;;
13866;SDS011;7003;46.982;15.248;2023-09-19T02:37:47;4.75;;;3.03;;
13866;SDS011;7003;46.982;15.248;2023-09-19T02:40:17;3.78;;;2.60;;
13866;SDS011;7003;46.982;15.248;2023-09-19T02:42:47;2.72;;;2.47;;
13866;SDS011;7003;46.982;15.248;2023-09-19T02:45:18;5.97;;;3.30;;
13866;SDS011;7003;46.982;15.248;2023-09-19T02:47:46;11.10;;;3.33;;
13866;SDS011;7003;46.982;15.248;2023-09-19T02:50:16;3.72;;;2.88;;
13866;SDS011;7003;46.982;15.248;2023-09-19T02:52:46;4.97;;;2.85;;
13866;SDS011;7003;46.982;15.248;2023-09-19T02:55:17;3.65;;;2.97;;
13866;SDS011;7003;46.982;15.248;2023-09-19T02:57:49;5.50;;;3.00;;
13866;SDS011;7003;46.982;15.248;2023-09-19T03:00:18;7.68;;;3.58;;
13866;SDS011;7003;46.982;15.248;2023-09-19T03:02:49;2.75;;;2.50;;
13866;SDS011;7003;46.982;15.248;2023-09-19T03:05:19;5.65;;;3.15;;
13866;SDS011;7003;46.982;15.248;2023-09-19T03:07:49;4.38;;;2.28;;
13866;SDS011;7003;46.982;15.248;2023-09-19T03:10:17;2.30;;;1.92;;
13866;SDS011;7003;46.982;15.248;2023-09-19T03:12:44;4.30;;;1.98;;
13866;SDS011;7003;46.982;15.248;2023-09-19T03:15:15;3.28;;;2.28;;
13866;SDS011;7003;46.982;15.248;2023-09-19T03:17:46;1.83;;;1.73;;
13866;SDS011;7003;46.982;15.248;2023-09-19T03:20:14;2.42;;;2.00;;
13866;SDS011;7003;46.982;15.248;2023-09-19T03:22:44;2.03;;;1.83;;
13866;SDS011;7003;46.982;15.248;2023-09-19T03:25:14;2.75;;;2.05;;
13866;SDS011;7003;46.982;15.248;2023-09-19T03:27:44;1.60;;;1.02;;
13866;SDS011;7003;46.982;15.248;2023-09-19T03:30:15;2.33;;;1.83;;
13866;SDS011;7003;46.982;15.248;2023-09-19T03:32:44;6.85;;;2.00;;
13866;SDS011;7003;46.982;15.248;2023-09-19T03:35:15;6.75;;;1.33;;
13866;SDS011;7003;46.982;15.248;2023-09-19T03:37:44;2.33;;;1.33;;
13866;SDS011;7003;46.982;15.248;2023-09-19T03:40:14;1.95;;;1.50;;
13866;SDS011;7003;46.982;15.248;2023-09-19T03:42:44;1.60;;;0.98;;
13866;SDS011;7003;46.982;15.248;2023-09-19T03:45:14;1.98;;;1.30;;
13866;SDS011;7003;46.982;15.248;2023-09-19T03:47:41;4.50;;;1.77;;
13866;SDS011;7003;46.982;15.248;2023-09-19T03:50:08;3.40;;;1.50;;
13866;SDS011;7003;46.982;15.248;2023-09-19T03:52:39;2.28;;;1.88;;
13866;SDS011;7003;46.982;15.248;2023-09-19T03:55:10;1.35;;;1.25;;
13866;SDS011;7003;46.982;15.248;2023-09-19T03:57:36;1.70;;;1.60;;
13866;SDS011;7003;46.982;15.248;2023-09-19T04:00:04;2.83;;;1.90;;
13866;SDS011;7003;46.982;15.248;2023-09-19T04:02:37;1.67;;;1.58;;
13866;SDS011;7003;46.982;15.248;2023-09-19T04:05:07;2.72;;;1.98;;
13866;SDS011;7003;46.982;15.248;2023-09-19T04:07:34;4.57;;;1.90;;
13866;SDS011;7003;46.982;15.248;2023-09-19T04:10:01;2.08;;;1.60;;
13866;SDS011;7003;46.982;15.248;2023-09-19T04:12:30;2.20;;;1.75;;
13866;SDS011;7003;46.982;15.248;2023-09-19T04:15:00;6.28;;;1.83;;
13866;SDS011;7003;46.982;15.248;2023-09-19T04:17:27;3.15;;;2.20;;
13866;SDS011;7003;46.982;15.248;2023-09-19T04:19:57;2.42;;;2.08;;
13866;SDS011;7003;46.982;15.248;2023-09-19T04:22:24;3.10;;;1.73;;
13866;SDS011;7003;46.982;15.248;2023-09-19T04:24:54;1.90;;;1.73;;
13866;SDS011;7003;46.982;15.248;2023-09-19T04:27:21;6.68;;;2.05;;
13866;SDS011;7003;46.982;15.248;2023-09-19T04:29:49;1.90;;;1.80;;
13866;SDS011;7003;46.982;15.248;2023-09-19T04:32:18;5.80;;;1.67;;
13866;SDS011;7003;46.982;15.248;2023-09-19T04:34:48;1.90;;;1.63;;
13866;SDS011;7003;46.982;15.248;2023-09-19T04:37:18;3.15;;;1.30;;
13866;SDS011;7003;46.982;15.248;2023-09-19T04:39:47;3.70;;;1.67;;
13866;SDS011;7003;46.982;15.248;2023-09-19T04:42:14;1.80;;;1.20;;
13866;SDS011;7003;46.982;15.248;2023-09-19T04:44:42;2.28;;;1.30;;
13866;SDS011;7003;46.982;15.248;2023-09-19T04:47:10;1.27;;;1.17;;
13866;SDS011;7003;46.982;15.248;2023-09-19T04:49:40;4.47;;;1.58;;
13866;SDS011;7003;46.982;15.248;2023-09-19T04:52:07;1.70;;;0.88;;
13866;SDS011;7003;46.982;15.248;2023-09-19T04:54:35;1.63;;;0.80;;
13866;SDS011;7003;46.982;15.248;2023-09-19T04:57:05;4.25;;;1.00;;
13866;SDS011;7003;46.982;15.248;2023-09-19T04:59:35;2.00;;;1.58;;
13866;SDS011;7003;46.982;15.248;2023-09-19T05:02:03;5.88;;;2.15;;
13866;SDS011;7003;46.982;15.248;2023-09-19T05:04:35;3.58;;;1.23;;
13866;SDS011;7003;46.982;15.248;2023-09-19T05:07:02;2.03;;;1.42;;
13866;SDS011;7003;46.982;15.248;2023-09-19T05:09:33;2.08;;;1.60;;
13866;SDS011;7003;46.982;15.248;2023-09-19T05:12:05;2.35;;;1.45;;
13866;SDS011;7003;46.982;15.248;2023-09-19T05:14:35;2.08;;;1.48;;
13866;SDS011;7003;46.982;15.248;2023-09-19T05:17:03;1.40;;;1.30;;
13866;SDS011;7003;46.982;15.248;2023-09-19T05:19:30;1.67;;;0.98;;
13866;SDS011;7003;46.982;15.248;2023-09-19T05:22:03;1.65;;;1.27;;
13866;SDS011;7003;46.982;15.248;2023-09-19T05:24:32;1.85;;;1.30;;
13866;SDS011;7003;46.982;15.248;2023-09-19T05:27:00;1.23;;;0.95;;
13866;SDS011;7003;46.982;15.248;2023-09-19T05:29:29;2.28;;;1.50;;
13866;SDS011;7003;46.982;15.248;2023-09-19T05:32:01;2.67;;;1.30;;
13866;SDS011;7003;46.982;15.248;2023-09-19T05:34:32;1.45;;;1.17;;
13866;SDS011;7003;46.982;15.248;2023-09-19T05:37:00;4.40;;;1.65;;
13866;SDS011;7003;46.982;15.248;2023-09-19T05:39:31;2.65;;;1.98;;
13866;SDS011;7003;46.982;15.248;2023-09-19T05:41:59;3.80;;;1.42;;
13866;SDS011;7003;46.982;15.248;2023-09-19T05:44:30;2.55;;;1.80;;
13866;SDS011;7003;46.982;15.248;2023-09-19T05:46:57;4.38;;;1.67;;
13866;SDS011;7003;46.982;15.248;2023-09-19T05:49:25;2.35;;;1.77;;
13866;SDS011;7003;46.982;15.248;2023-09-19T05:51:52;1.77;;;1.20;;
13866;SDS011;7003;46.982;15.248;2023-09-19T05:54:27;1.30;;;1.17;;
13866;SDS011;7003;46.982;15.248;2023-09-19T05:56:56;1.23;;;1.13;;
13866;SDS011;7003;46.982;15.248;2023-09-19T05:59:23;2.80;;;1.25;;
13866;SDS011;7003;46.982;15.248;2023-09-19T06:01:51;3.03;;;1.67;;
13866;SDS011;7003;46.982;15.248;2023-09-19T06:04:18;1.10;;;1.00;;
13866;SDS011;7003;46.982;15.248;2023-09-19T06:06:49;1.50;;;1.08;;
13866;SDS011;7003;46.982;15.248;2023-09-19T06:09:18;1.63;;;0.98;;
13866;SDS011;7003;46.982;15.248;2023-09-19T06:11:49;1.60;;;1.50;;
13866;SDS011;7003;46.982;15.248;2023-09-19T06:14:20;1.17;;;1.08;;
13866;SDS011;7003;46.982;15.248;2023-09-19T06:16:49;1.63;;;0.73;;
13866;SDS011;7003;46.982;15.248;2023-09-19T06:19:18;1.42;;;1.10;;
13866;SDS011;7003;46.982;15.248;2023-09-19T06:21:48;1.10;;;1.00;;
13866;SDS011;7003;46.982;15.248;2023-09-19T06:24:18;1.30;;;1.20;;
13866;SDS011;7003;46.982;15.248;2023-09-19T06:26:49;3.08;;;1.67;;
13866;SDS011;7003;46.982;15.248;2023-09-19T06:29:22;1.67;;;1.33;;
13866;SDS011;7003;46.982;15.248;2023-09-19T06:31:52;3.70;;;1.90;;
13866;SDS011;7003;46.982;15.248;2023-09-19T06:34:22;2.65;;;1.25;;
13866;SDS011;7003;46.982;15.248;2023-09-19T06:36:51;2.95;;;1.85;;
13866;SDS011;7003;46.982;15.248;2023-09-19T06:39:21;3.13;;;1.90;;
13866;SDS011;7003;46.982;15.248;2023-09-19T06:41:49;1.63;;;1.50;;
13866;SDS011;7003;46.982;15.248;2023-09-19T06:44:23;1.65;;;1.20;;
13866;SDS011;7003;46.982;15.248;2023-09-19T06:46:53;1.80;;;1.33;;
13866;SDS011;7003;46.982;15.248;2023-09-19T06:49:22;2.67;;;2.15;;
13866;SDS011;7003;46.982;15.248;2023-09-19T06:51:54;3.03;;;1.30;;
13866;SDS011;7003;46.982;15.248;2023-09-19T06:54:22;11.00;;;1.40;;
13866;SDS011;7003;46.982;15.248;2023-09-19T06:56:50;4.43;;;1.10;;
13866;SDS011;7003;46.982;15.248;2023-09-19T06:59:17;1.10;;;1.00;;
13866;SDS011;7003;46.982;15.248;2023-09-19T07:01:49;2.65;;;1.60;;
13866;SDS011;7003;46.982;15.248;2023-09-19T07:04:19;1.30;;;1.20;;
13866;SDS011;7003;46.982;15.248;2023-09-19T07:06:49;2.53;;;1.45;;
13866;SDS011;7003;46.982;15.248;2023-09-19T07:09:19;1.98;;;1.27;;
13866;SDS011;7003;46.982;15.248;2023-09-19T07:11:47;2.15;;;1.20;;
13866;SDS011;7003;46.982;15.248;2023-09-19T07:14:16;4.15;;;1.75;;
13866;SDS011;7003;46.982;15.248;2023-09-19T07:16:44;1.48;;;1.15;;
13866;SDS011;7003;46.982;15.248;2023-09-19T07:19:14;0.75;;;0.73;;
13866;SDS011;7003;46.982;15.248;2023-09-19T07:21:45;1.70;;;1.55;;
13866;SDS011;7003;46.982;15.248;2023-09-19T07:24:13;1.60;;;1.35;;
13866;SDS011;7003;46.982;15.248;2023-09-19T07:26:42;2.25;;;1.35;;
13866;SDS011;7003;46.982;15.248;2023-09-19T07:29:12;2.10;;;1.38;;
13866;SDS011;7003;46.982;15.248;2023-09-19T07:31:39;0.80;;;0.80;;
13866;SDS011;7003;46.982;15.248;2023-09-19T07:34:10;1.75;;;1.60;;
13866;SDS011;7003;46.982;15.248;2023-09-19T07:36:39;2.67;;;1.13;;
13866;SDS011;7003;46.982;15.248;2023-09-19T07:39:07;2.05;;;1.58;;
13866;SDS011;7003;46.982;15.248;2023-09-19T07:41:37;1.35;;;0.68;;
13866;SDS011;7003;46.982;15.248;2023-09-19T07:44:07;4.22;;;1.58;;
13866;SDS011;7003;46.982;15.248;2023-09-19T07:46:35;9.90;;;2.15;;
13866;SDS011;7003;46.982;15.248;2023-09-19T07:49:02;1.83;;;1.20;;
13866;SDS011;7003;46.982;15.248;2023-09-19T07:51:32;1.05;;;0.93;;
13866;SDS011;7003;46.982;15.248;2023-09-19T07:54:04;0.93;;;0.93;;
13866;SDS011;7003;46.982;15.248;2023-09-19T07:56:31;1.73;;;1.20;;
13866;SDS011;7003;46.982;15.248;2023-09-19T07:58:59;1.73;;;1.30;;
13866;SDS011;7003;46.982;15.248;2023-09-19T08:01:26;2.35;;;1.30;;
13866;SDS011;7003;46.982;15.248;2023-09-19T08:03:56;1.90;;;1.50;;
13866;SDS011;7003;46.982;15.248;2023-09-19T08:06:24;1.75;;;1.00;;
13866;SDS011;7003;46.982;15.248;2023-09-19T08:08:57;1.73;;;1.52;;
13866;SDS011;7003;46.982;15.248;2023-09-19T08:11:27;3.47;;;1.75;;
13866;SDS011;7003;46.982;15.248;2023-09-19T08:13:59;1.30;;;1.20;;
13866;SDS011;7003;46.982;15.248;2023-09-19T08:16:29;0.85;;;0.82;;
13866;SDS011;7003;46.982;15.248;2023-09-19T08:18:56;3.60;;;1.20;;
13866;SDS011;7003;46.982;15.248;2023-09-19T08:21:27;1.85;;;1.17;;
13866;SDS011;7003;46.982;15.248;2023-09-19T08:23:55;3.20;;;1.23;;
13866;SDS011;7003;46.982;15.248;2023-09-19T08:26:23;1.60;;;1.02;;
13866;SDS011;7003;46.982;15.248;2023-09-19T08:28:54;2.15;;;1.40;;
13866;SDS011;7003;46.982;15.248;2023-09-19T08:31:22;1.75;;;1.15;;
13866;SDS011;7003;46.982;15.248;2023-09-19T08:33:51;1.15;;;1.05;;
13866;SDS011;7003;46.982;15.248;2023-09-19T08:36:24;2.03;;;1.23;;
13866;SDS011;7003;46.982;15.248;2023-09-19T08:38:51;4.03;;;1.20;;
13866;SDS011;7003;46.982;15.248;2023-09-19T08:41:21;1.10;;;1.00;;
13866;SDS011;7003;46.982;15.248;2023-09-19T08:43:49;1.75;;;1.38;;
13866;SDS011;7003;46.982;15.248;2023-09-19T08:46:20;1.27;;;1.08;;
13866;SDS011;7003;46.982;15.248;2023-09-19T08:48:54;2.35;;;2.10;;
13866;SDS011;7003;46.982;15.248;2023-09-19T08:51:30;2.33;;;1.55;;
13866;SDS011;7003;46.982;15.248;2023-09-19T08:54:07;3.17;;;1.35;;
13866;SDS011;7003;46.982;15.248;2023-09-19T08:56:35;1.83;;;1.10;;
13866;SDS011;7003;46.982;15.248;2023-09-19T08:59:06;1.73;;;1.00;;
13866;SDS011;7003;46.982;15.248;2023-09-19T09:01:35;1.30;;;1.10;;
13866;SDS011;7003;46.982;15.248;2023-09-19T09:04:06;2.08;;;1.23;;
13866;SDS011;7003;46.982;15.248;2023-09-19T09:06:38;1.45;;;1.10;;
13866;SDS011;7003;46.982;15.248;2023-09-19T09:09:09;2.03;;;1.23;;
13866;SDS011;7003;46.982;15.248;2023-09-19T09:11:36;1.33;;;1.00;;
13866;SDS011;7003;46.982;15.248;2023-09-19T09:14:06;0.98;;;0.93;;
13866;SDS011;7003;46.982;15.248;2023-09-19T09:16:37;0.80;;;0.80;;
13866;SDS011;7003;46.982;15.248;2023-09-19T09:19:07;1.20;;;0.88;;
13866;SDS011;7003;46.982;15.248;2023-09-19T09:21:37;1.33;;;0.95;;
13866;SDS011;7003;46.982;15.248;2023-09-19T09:26:56;1.98;;;1.38;;
13866;SDS011;7003;46.982;15.248;2023-09-19T09:32:20;1.15;;;0.88;;
13866;SDS011;7003;46.982;15.248;2023-09-19T09:34:53;1.52;;;1.42;;
13866;SDS011;7003;46.982;15.248;2023-09-19T09:37:22;2.03;;;1.10;;
13866;SDS011;7003;46.982;15.248;2023-09-19T09:39:54;1.52;;;1.42;;
13866;SDS011;7003;46.982;15.248;2023-09-19T09:42:31;1.30;;;1.20;;
13866;SDS011;7003;46.982;15.248;2023-09-19T09:47:55;1.42;;;1.33;;
13866;SDS011;7003;46.982;15.248;2023-09-19T09:50:25;1.30;;;1.08;;
13866;SDS011;7003;46.982;15.248;2023-09-19T09:52:55;1.65;;;1.02;;
13866;SDS011;7003;46.982;15.248;2023-09-19T09:58:28;2.50;;;1.40;;
13866;SDS011;7003;46.982;15.248;2023-09-19T10:00:57;1.27;;;1.13;;
13866;SDS011;7003;46.982;15.248;2023-09-19T10:03:33;1.90;;;1.80;;
13866;SDS011;7003;46.982;15.248;2023-09-19T10:06:09;1.75;;;1.17;;
13866;SDS011;7003;46.982;15.248;2023-09-19T10:09:00;3.15;;;1.30;;
13866;SDS011;7003;46.982;15.248;2023-09-19T10:11:40;1.08;;;0.98;;
13866;SDS011;7003;46.982;15.248;2023-09-19T10:14:10;1.52;;;1.00;;
13866;SDS011;7003;46.982;15.248;2023-09-19T10:16:44;2.08;;;1.23;;
13866;SDS011;7003;46.982;15.248;2023-09-19T10:19:21;1.38;;;1.10;;
13866;SDS011;7003;46.982;15.248;2023-09-19T10:22:02;2.10;;;1.20;;
13866;SDS011;7003;46.982;15.248;2023-09-19T10:24:31;1.45;;;1.02;;
13866;SDS011;7003;46.982;15.248;2023-09-19T10:27:04;1.33;;;1.23;;
13866;SDS011;7003;46.982;15.248;2023-09-19T10:29:34;0.70;;;0.60;;
13866;SDS011;7003;46.982;15.248;2023-09-19T10:32:05;1.08;;;1.00;;
13866;SDS011;7003;46.982;15.248;2023-09-19T10:34:36;1.05;;;0.95;;
13866;SDS011;7003;46.982;15.248;2023-09-19T10:37:07;0.93;;;0.82;;
13866;SDS011;7003;46.982;15.248;2023-09-19T10:39:40;1.80;;;1.13;;
13866;SDS011;7003;46.982;15.248;2023-09-19T10:42:07;2.40;;;1.15;;
13866;SDS011;7003;46.982;15.248;2023-09-19T10:44:45;1.25;;;0.80;;
13866;SDS011;7003;46.982;15.248;2023-09-19T10:47:19;1.75;;;0.80;;
13866;SDS011;7003;46.982;15.248;2023-09-19T10:49:51;0.80;;;0.80;;
13866;SDS011;7003;46.982;15.248;2023-09-19T10:52:20;1.08;;;1.05;;
13866;SDS011;7003;46.982;15.248;2023-09-19T10:54:51;1.23;;;0.88;;
13866;SDS011;7003;46.982;15.248;2023-09-19T10:57:23;2.25;;;0.85;;
13866;SDS011;7003;46.982;15.248;2023-09-19T11:00:03;1.77;;;1.30;;
13866;SDS011;7003;46.982;15.248;2023-09-19T11:03:16;0.73;;;0.60;;
13866;SDS011;7003;46.982;15.248;2023-09-19T11:05:59;0.75;;;0.73;;
13866;SDS011;7003;46.982;15.248;2023-09-19T11:11:39;1.48;;;1.00;;
13866;SDS011;7003;46.982;15.248;2023-09-19T11:14:14;4.05;;;0.88;;
13866;SDS011;7003;46.982;15.248;2023-09-19T11:25:56;1.33;;;0.98;;
13866;SDS011;7003;46.982;15.248;2023-09-19T11:28:30;1.02;;;0.77;;
13866;SDS011;7003;46.982;15.248;2023-09-19T11:40:15;1.77;;;0.90;;
13866;SDS011;7003;46.982;15.248;2023-09-19T11:42:43;0.82;;;0.68;;
13866;SDS011;7003;46.982;15.248;2023-09-19T11:48:25;2.30;;;0.88;;
13866;SDS011;7003;46.982;15.248;2023-09-19T11:50:57;1.35;;;1.17;;
13866;SDS011;7003;46.982;15.248;2023-09-19T11:53:25;2.92;;;1.10;;
13866;SDS011;7003;46.982;15.248;2023-09-19T11:56:04;1.33;;;0.95;;
13866;SDS011;7003;46.982;15.248;2023-09-19T11:58:36;0.88;;;0.65;;
13866;SDS011;7003;46.982;15.248;2023-09-19T12:01:05;0.77;;;0.77;;
13866;SDS011;7003;46.982;15.248;2023-09-19T12:03:45;3.28;;;1.20;;
13866;SDS011;7003;46.982;15.248;2023-09-19T12:06:15;3.72;;;1.27;;
13866;SDS011;7003;46.982;15.248;2023-09-19T12:08:46;1.15;;;0.80;;
13866;SDS011;7003;46.982;15.248;2023-09-19T12:11:17;1.13;;;0.82;;
13866;SDS011;7003;46.982;15.248;2023-09-19T12:13:47;3.33;;;1.10;;
13866;SDS011;7003;46.982;15.248;2023-09-19T12:16:15;0.55;;;0.52;;
13866;SDS011;7003;46.982;15.248;2023-09-19T12:18:47;4.15;;;1.40;;
13866;SDS011;7003;46.982;15.248;2023-09-19T12:21:25;1.35;;;0.80;;
13866;SDS011;7003;46.982;15.248;2023-09-19T12:23:57;0.65;;;0.63;;
13866;SDS011;7003;46.982;15.248;2023-09-19T12:26:39;0.98;;;0.82;;
13866;SDS011;7003;46.982;15.248;2023-09-19T12:29:10;1.92;;;1.00;;
13866;SDS011;7003;46.982;15.248;2023-09-19T12:31:48;0.88;;;0.80;;
13866;SDS011;7003;46.982;15.248;2023-09-19T12:34:20;2.45;;;0.73;;
13866;SDS011;7003;46.982;15.248;2023-09-19T12:37:05;2.05;;;1.05;;
13866;SDS011;7003;46.982;15.248;2023-09-19T12:39:42;1.33;;;0.70;;
13866;SDS011;7003;46.982;15.248;2023-09-19T12:42:16;1.15;;;1.00;;
13866;SDS011;7003;46.982;15.248;2023-09-19T12:44:47;2.67;;;0.90;;
13866;SDS011;7003;46.982;15.248;2023-09-19T12:47:19;3.53;;;1.10;;
13866;SDS011;7003;46.982;15.248;2023-09-19T12:50:05;2.55;;;1.38;;
13866;SDS011;7003;46.982;15.248;2023-09-19T12:52:34;1.30;;;1.00;;
13866;SDS011;7003;46.982;15.248;2023-09-19T12:55:03;1.20;;;1.10;;
13866;SDS011;7003;46.982;15.248;2023-09-19T12:57:33;1.92;;;0.95;;
13866;SDS011;7003;46.982;15.248;2023-09-19T13:00:05;5.72;;;1.48;;
13866;SDS011;7003;46.982;15.248;2023-09-19T13:05:50;1.00;;;1.00;;
13866;SDS011;7003;46.982;15.248;2023-09-19T13:08:23;0.98;;;0.85;;
13866;SDS011;7003;46.982;15.248;2023-09-19T13:11:07;2.15;;;1.25;;
13866;SDS011;7003;46.982;15.248;2023-09-19T13:13:43;1.88;;;1.15;;
13866;SDS011;7003;46.982;15.248;2023-09-19T13:16:14;1.75;;;1.13;;
13866;SDS011;7003;46.982;15.248;2023-09-19T13:18:51;0.80;;;0.68;;
13866;SDS011;7003;46.982;15.248;2023-09-19T13:21:29;2.40;;;1.02;;
13866;SDS011;7003;46.982;15.248;2023-09-19T13:24:18;1.02;;;0.93;;
13866;SDS011;7003;46.982;15.248;2023-09-19T13:26:46;1.70;;;1.13;;
13866;SDS011;7003;46.982;15.248;2023-09-19T13:29:15;1.25;;;1.05;;
13866;SDS011;7003;46.982;15.248;2023-09-19T13:31:46;1.50;;;1.40;;
13866;SDS011;7003;46.982;15.248;2023-09-19T13:34:17;1.05;;;0.95;;
13866;SDS011;7003;46.982;15.248;2023-09-19T13:36:48;1.05;;;0.75;;
13866;SDS011;7003;46.982;15.248;2023-09-19T13:39:17;2.78;;;1.10;;
13866;SDS011;7003;46.982;15.248;2023-09-19T13:41:46;2.88;;;1.13;;
13866;SDS011;7003;46.982;15.248;2023-09-19T13:44:16;0.95;;;0.63;;
13866;SDS011;7003;46.982;15.248;2023-09-19T13:46:44;2.30;;;1.27;;
13866;SDS011;7003;46.982;15.248;2023-09-19T13:49:12;1.25;;;1.15;;
13866;SDS011;7003;46.982;15.248;2023-09-19T13:51:40;1.15;;;1.05;;
13866;SDS011;7003;46.982;15.248;2023-09-19T13:54:09;2.72;;;1.35;;
13866;SDS011;7003;46.982;15.248;2023-09-19T13:56:38;1.73;;;1.08;;
13866;SDS011;7003;46.982;15.248;2023-09-19T13:59:05;1.52;;;1.13;;
13866;SDS011;7003;46.982;15.248;2023-09-19T14:01:36;1.30;;;1.00;;
13866;SDS011;7003;46.982;15.248;2023-09-19T14:04:07;1.67;;;1.02;;
13866;SDS011;7003;46.982;15.248;2023-09-19T14:06:41;2.08;;;1.38;;
13866;SDS011;7003;46.982;15.248;2023-09-19T14:09:11;2.08;;;1.08;;
13866;SDS011;7003;46.982;15.248;2023-09-19T14:11:41;3.40;;;1.00;;
13866;SDS011;7003;46.982;15.248;2023-09-19T14:14:12;1.25;;;1.00;;
13866;SDS011;7003;46.982;15.248;2023-09-19T14:16:41;2.03;;;1.13;;
13866;SDS011;7003;46.982;15.248;2023-09-19T14:19:08;1.63;;;1.02;;
13866;SDS011;7003;46.982;15.248;2023-09-19T14:21:38;2.78;;;1.00;;
13866;SDS011;7003;46.982;15.248;2023-09-19T14:24:06;2.10;;;1.30;;
13866;SDS011;7003;46.982;15.248;2023-09-19T14:26:35;1.00;;;0.82;;
13866;SDS011;7003;46.982;15.248;2023-09-19T14:29:03;1.55;;;1.23;;
13866;SDS011;7003;46.982;15.248;2023-09-19T14:31:33;1.17;;;0.90;;
13866;SDS011;7003;46.982;15.248;2023-09-19T14:34:07;1.23;;;1.08;;
13866;SDS011;7003;46.982;15.248;2023-09-19T14:36:36;1.35;;;1.10;;
13866;SDS011;7003;46.982;15.248;2023-09-19T14:39:08;2.40;;;1.33;;
13866;SDS011;7003;46.982;15.248;2023-09-19T14:41:38;1.85;;;1.23;;
13866;SDS011;7003;46.982;15.248;2023-09-19T14:44:09;1.55;;;1.02;;
13866;SDS011;7003;46.982;15.248;2023-09-19T14:46:36;2.00;;;1.25;;
13866;SDS011;7003;46.982;15.248;2023-09-19T14:49:04;3.33;;;1.17;;
13866;SDS011;7003;46.982;15.248;2023-09-19T14:51:33;1.13;;;0.93;;
13866;SDS011;7003;46.982;15.248;2023-09-19T14:54:03;3.55;;;1.20;;
13866;SDS011;7003;46.982;15.248;2023-09-19T14:56:33;1.30;;;1.13;;
13866;SDS011;7003;46.982;15.248;2023-09-19T14:59:00;4.97;;;1.55;;
13866;SDS011;7003;46.982;15.248;2023-09-19T15:01:28;1.88;;;1.15;;
13866;SDS011;7003;46.982;15.248;2023-09-19T15:03:58;1.75;;;1.58;;
13866;SDS011;7003;46.982;15.248;2023-09-19T15:06:26;1.60;;;1.17;;
13866;SDS011;7003;46.982;15.248;2023-09-19T15:08:58;3.05;;;1.00;;
13866;SDS011;7003;46.982;15.248;2023-09-19T15:11:26;1.13;;;1.10;;
13866;SDS011;7003;46.982;15.248;2023-09-19T15:13:54;2.15;;;1.23;;
13866;SDS011;7003;46.982;15.248;2023-09-19T15:16:22;1.15;;;1.05;;
13866;SDS011;7003;46.982;15.248;2023-09-19T15:18:49;2.67;;;1.38;;
13866;SDS011;7003;46.982;15.248;2023-09-19T15:21:17;1.83;;;1.27;;
13866;SDS011;7003;46.982;15.248;2023-09-19T15:23:45;1.65;;;1.50;;
13866;SDS011;7003;46.982;15.248;2023-09-19T15:26:17;0.90;;;0.90;;
13866;SDS011;7003;46.982;15.248;2023-09-19T15:28:45;0.80;;;0.80;;
13866;SDS011;7003;46.982;15.248;2023-09-19T15:31:14;1.30;;;1.10;;
13866;SDS011;7003;46.982;15.248;2023-09-19T15:33:41;2.17;;;1.48;;
13866;SDS011;7003;46.982;15.248;2023-09-19T15:36:09;1.90;;;1.20;;
13866;SDS011;7003;46.982;15.248;2023-09-19T15:38:55;2.03;;;1.33;;
13866;SDS011;7003;46.982;15.248;2023-09-19T15:41:26;2.30;;;0.88;;
13866;SDS011;7003;46.982;15.248;2023-09-19T15:43:55;1.38;;;1.10;;
13866;SDS011;7003;46.982;15.248;2023-09-19T15:46:28;1.27;;;1.10;;
13866;SDS011;7003;46.982;15.248;2023-09-19T15:48:58;1.48;;;1.17;;
13866;SDS011;7003;46.982;15.248;2023-09-19T15:51:29;0.75;;;0.63;;
13866;SDS011;7003;46.982;15.248;2023-09-19T15:53:57;1.10;;;1.00;;